createdAt,value
2023-09-27T00:02:13.581Z,20.73
2023-09-27T00:04:40.433Z,20.75
2023-09-27T00:07:07.646Z,20.75
2023-09-27T00:09:36.130Z,20.67
2023-09-27T00:12:05.849Z,20.71
2023-09-27T00:14:35.696Z,20.75
2023-09-27T00:17:02.469Z,20.83
2023-09-27T00:19:32.016Z,20.75
2023-09-27T00:21:58.739Z,20.63
2023-09-27T00:24:25.411Z,20.57
2023-09-27T00:26:52.155Z,20.56
2023-09-27T00:29:19.189Z,20.52
2023-09-27T00:31:46.106Z,20.42
2023-09-27T00:34:12.952Z,20.30
2023-09-27T00:36:39.638Z,20.19
2023-09-27T00:39:06.480Z,20.14
2023-09-27T00:41:33.255Z,20.09
2023-09-27T00:44:00.046Z,20.09
2023-09-27T00:46:26.791Z,20.20
2023-09-27T00:48:53.906Z,20.24
2023-09-27T00:51:21.012Z,20.28
2023-09-27T00:53:49.308Z,20.27
2023-09-27T00:56:17.400Z,20.26
2023-09-27T00:58:44.409Z,20.18
2023-09-27T01:01:13.982Z,20.40
2023-09-27T01:03:41.372Z,20.51
2023-09-27T01:06:09.590Z,20.56
2023-09-27T01:08:36.667Z,20.66
2023-09-27T01:11:05.966Z,20.46
2023-09-27T01:13:33.027Z,20.60
2023-09-27T01:15:59.799Z,20.59
2023-09-27T01:18:28.047Z,20.58
2023-09-27T01:20:54.770Z,20.64
2023-09-27T01:23:21.499Z,20.42
2023-09-27T01:25:54.367Z,20.63
2023-09-27T01:28:22.600Z,20.56
2023-09-27T01:30:49.321Z,20.57
2023-09-27T01:33:16.747Z,20.56
2023-09-27T01:35:44.971Z,20.53
2023-09-27T01:38:13.240Z,20.46
2023-09-27T01:40:41.964Z,20.42
2023-09-27T01:43:08.638Z,20.43
2023-09-27T01:45:35.800Z,20.34
2023-09-27T01:48:04.332Z,20.30
2023-09-27T01:50:33.462Z,20.25
2023-09-27T01:53:00.780Z,20.19
2023-09-27T01:55:27.754Z,20.19
2023-09-27T01:57:54.714Z,20.16
2023-09-27T02:00:21.966Z,20.11
2023-09-27T02:02:56.855Z,20.07
2023-09-27T02:05:24.578Z,20.09
2023-09-27T02:07:51.464Z,20.07
2023-09-27T02:10:18.366Z,20.02
2023-09-27T02:12:45.416Z,19.79
2023-09-27T02:15:13.790Z,19.84
2023-09-27T02:17:41.676Z,19.71
2023-09-27T02:20:14.296Z,19.64
2023-09-27T02:22:42.635Z,19.63
2023-09-27T02:25:12.989Z,19.64
2023-09-27T02:27:40.574Z,19.58
2023-09-27T02:30:12.274Z,19.55
2023-09-27T02:32:43.159Z,19.44
2023-09-27T02:35:10.555Z,19.36
2023-09-27T02:37:39.207Z,19.28
2023-09-27T02:40:12.902Z,19.26
2023-09-27T02:42:44.770Z,19.19
2023-09-27T02:45:13.444Z,19.21
2023-09-27T02:47:44.547Z,19.21
2023-09-27T02:50:13.244Z,19.25
2023-09-27T02:52:40.167Z,19.23
2023-09-27T02:55:10.404Z,19.22
2023-09-27T02:57:38.042Z,19.16
2023-09-27T03:00:05.809Z,19.07
2023-09-27T03:02:34.547Z,18.82
2023-09-27T03:05:01.821Z,18.97
2023-09-27T03:07:28.554Z,18.79
2023-09-27T03:09:55.946Z,18.81
2023-09-27T03:12:22.643Z,18.84
2023-09-27T03:14:49.423Z,18.87
2023-09-27T03:17:16.590Z,18.83
2023-09-27T03:19:43.298Z,18.79
2023-09-27T03:22:10.240Z,18.82
2023-09-27T03:24:37.555Z,18.82
2023-09-27T03:27:05.755Z,18.85
2023-09-27T03:29:33.584Z,18.92
2023-09-27T03:32:00.615Z,19.02
2023-09-27T03:34:27.386Z,19.06
2023-09-27T03:36:59.902Z,19.09
2023-09-27T03:39:29.964Z,19.17
2023-09-27T03:41:57.791Z,19.29
2023-09-27T03:44:25.407Z,19.40
2023-09-27T03:46:52.258Z,19.38
2023-09-27T03:49:19.153Z,19.39
2023-09-27T03:51:45.828Z,19.39
2023-09-27T03:54:12.483Z,19.38
2023-09-27T03:57:59.304Z,19.33
2023-09-27T04:00:27.421Z,19.23
2023-09-27T04:02:54.317Z,19.25
2023-09-27T04:05:24.414Z,19.16
2023-09-27T04:07:51.757Z,19.20
2023-09-27T04:10:20.165Z,19.32
2023-09-27T04:12:47.126Z,19.29
2023-09-27T04:15:14.218Z,19.29
2023-09-27T04:17:41.141Z,19.23
2023-09-27T04:20:16.286Z,19.15
2023-09-27T04:22:50.802Z,19.14
2023-09-27T04:25:19.006Z,19.12
2023-09-27T04:27:48.766Z,19.12
2023-09-27T04:30:16.254Z,19.09
2023-09-27T04:32:44.678Z,19.18
2023-09-27T04:35:11.820Z,19.22
2023-09-27T04:37:42.796Z,19.23
2023-09-27T04:40:12.592Z,19.12
2023-09-27T04:42:43.397Z,19.10
2023-09-27T04:45:12.320Z,19.00
2023-09-27T04:47:39.821Z,19.05
2023-09-27T04:50:11.492Z,18.89
2023-09-27T04:52:39.849Z,18.97
2023-09-27T04:55:08.377Z,18.94
2023-09-27T04:57:35.465Z,18.97
2023-09-27T05:00:03.748Z,19.02
2023-09-27T05:02:30.713Z,19.09
2023-09-27T05:04:57.965Z,19.24
2023-09-27T05:07:25.229Z,19.35
2023-09-27T05:09:51.994Z,19.44
2023-09-27T05:12:21.672Z,19.60
2023-09-27T05:14:48.403Z,19.52
2023-09-27T05:17:15.257Z,19.35
2023-09-27T05:19:42.015Z,19.22
2023-09-27T05:22:08.816Z,19.04
2023-09-27T05:24:40.089Z,19.01
2023-09-27T05:27:07.786Z,18.98
2023-09-27T05:29:34.982Z,19.02
2023-09-27T05:32:01.737Z,19.02
2023-09-27T05:34:30.347Z,19.04
2023-09-27T05:36:57.190Z,19.07
2023-09-27T05:39:24.552Z,19.14
2023-09-27T05:41:54.576Z,19.23
2023-09-27T05:44:21.401Z,19.35
2023-09-27T05:46:48.816Z,19.63
2023-09-27T05:49:16.272Z,19.74
2023-09-27T05:51:44.494Z,19.97
2023-09-27T05:54:11.853Z,20.14
2023-09-27T05:56:39.476Z,20.26
2023-09-27T05:59:10.175Z,20.78
2023-09-27T06:01:37.293Z,21.23
2023-09-27T06:04:04.891Z,21.24
2023-09-27T06:06:31.666Z,21.26
2023-09-27T06:08:59.734Z,21.49
2023-09-27T06:11:26.644Z,21.55
2023-09-27T06:13:53.460Z,21.65
2023-09-27T06:16:21.127Z,21.79
2023-09-27T06:18:48.270Z,21.98
2023-09-27T06:21:15.169Z,22.07
2023-09-27T06:23:44.663Z,22.12
2023-09-27T06:26:11.504Z,22.28
2023-09-27T06:28:39.519Z,22.35
2023-09-27T06:31:09.305Z,22.58
2023-09-27T06:33:40.619Z,23.03
2023-09-27T06:36:09.241Z,23.54
2023-09-27T06:38:36.770Z,23.66
2023-09-27T06:41:04.086Z,23.97
2023-09-27T06:43:32.602Z,24.32
2023-09-27T06:46:02.507Z,24.90
2023-09-27T06:48:30.414Z,25.32
2023-09-27T06:50:57.299Z,25.92
2023-09-27T06:53:27.502Z,26.37
2023-09-27T06:55:56.598Z,27.24
2023-09-27T06:58:24.791Z,27.80
2023-09-27T07:00:53.288Z,28.57
2023-09-27T07:03:26.891Z,28.68
2023-09-27T07:05:53.886Z,28.44
2023-09-27T07:08:21.586Z,28.49
2023-09-27T07:10:48.549Z,28.75
2023-09-27T07:13:15.971Z,29.14
2023-09-27T07:15:47.158Z,29.26
2023-09-27T07:18:14.634Z,29.26
2023-09-27T07:20:42.200Z,29.15
2023-09-27T07:23:09.674Z,29.44
2023-09-27T07:25:39.047Z,29.62
2023-09-27T07:28:07.141Z,30.28
2023-09-27T07:30:36.349Z,30.27
2023-09-27T07:33:10.369Z,30.53
2023-09-27T07:35:43.045Z,30.44
2023-09-27T07:38:13.367Z,31.06
2023-09-27T07:40:40.161Z,30.50
2023-09-27T07:43:06.870Z,31.42
2023-09-27T07:45:36.623Z,31.25
2023-09-27T07:48:03.757Z,29.71
2023-09-27T07:50:32.945Z,29.86
2023-09-27T07:53:04.820Z,30.57
2023-09-27T07:55:35.117Z,30.66
2023-09-27T07:58:01.994Z,30.60
2023-09-27T08:00:30.962Z,30.60
2023-09-27T08:03:01.816Z,31.02
2023-09-27T08:05:28.787Z,31.44
2023-09-27T08:07:56.071Z,32.12
2023-09-27T08:10:23.738Z,30.83
2023-09-27T08:12:50.566Z,30.82
2023-09-27T08:15:19.302Z,30.86
2023-09-27T08:17:47.758Z,31.01
2023-09-27T08:20:14.809Z,30.61
2023-09-27T08:22:41.832Z,29.84
2023-09-27T08:25:16.818Z,30.08
2023-09-27T08:27:44.148Z,30.67
2023-09-27T08:30:13.109Z,30.64
2023-09-27T08:32:42.218Z,31.28
2023-09-27T08:35:10.169Z,30.65
2023-09-27T08:37:36.948Z,30.94
2023-09-27T08:40:06.833Z,30.06
2023-09-27T08:42:34.350Z,30.62
2023-09-27T08:45:07.786Z,30.68
2023-09-27T08:47:35.058Z,31.00
2023-09-27T08:50:02.944Z,30.00
2023-09-27T08:52:30.481Z,30.32
2023-09-27T08:54:57.565Z,30.68
2023-09-27T08:57:27.413Z,30.68
2023-09-27T08:59:54.955Z,30.87
2023-09-27T09:02:25.114Z,31.00
2023-09-27T09:04:52.645Z,30.36
2023-09-27T09:07:19.641Z,30.68
2023-09-27T09:09:47.374Z,31.13
2023-09-27T09:12:14.128Z,30.77
2023-09-27T09:14:56.254Z,31.61
2023-09-27T09:17:35.336Z,31.21
2023-09-27T09:20:28.575Z,31.16
2023-09-27T09:22:58.403Z,31.53
2023-09-27T09:25:25.568Z,31.18
2023-09-27T09:30:42.209Z,31.62
2023-09-27T09:33:18.434Z,31.77
2023-09-27T09:35:46.154Z,31.16
2023-09-27T09:38:13.516Z,31.03
2023-09-27T09:40:56.049Z,30.74
2023-09-27T09:43:36.564Z,30.88
2023-09-27T09:46:07.351Z,31.49
2023-09-27T09:48:35.290Z,31.54
2023-09-27T09:51:09.493Z,30.83
2023-09-27T09:53:42.609Z,30.83
2023-09-27T09:58:48.122Z,30.18
2023-09-27T10:01:22.486Z,29.86
2023-09-27T10:03:53.002Z,29.83
2023-09-27T10:06:29.710Z,30.03
2023-09-27T10:09:06.518Z,29.56
2023-09-27T10:11:37.870Z,29.52
2023-09-27T10:14:06.170Z,29.99
2023-09-27T10:16:33.407Z,30.19
2023-09-27T10:19:02.240Z,29.32
2023-09-27T10:21:28.902Z,29.60
2023-09-27T10:24:00.252Z,29.69
2023-09-27T10:26:39.164Z,30.06
2023-09-27T10:29:19.561Z,29.71
2023-09-27T10:31:56.862Z,29.45
2023-09-27T10:34:26.715Z,29.19
2023-09-27T10:37:04.519Z,29.48
2023-09-27T10:39:39.655Z,29.30
2023-09-27T10:42:06.508Z,29.11
2023-09-27T10:44:35.316Z,29.29
2023-09-27T10:47:06.102Z,29.33
2023-09-27T10:49:41.901Z,29.34
2023-09-27T10:52:20.557Z,29.06
2023-09-27T10:54:47.914Z,28.94
2023-09-27T10:57:15.705Z,28.83
2023-09-27T10:59:45.449Z,29.03
2023-09-27T11:02:12.281Z,29.04
2023-09-27T11:04:41.077Z,29.20
2023-09-27T11:07:08.003Z,29.59
2023-09-27T11:09:45.240Z,29.12
2023-09-27T11:12:11.902Z,29.17
2023-09-27T11:14:46.036Z,29.20
2023-09-27T11:17:26.965Z,29.05
2023-09-27T11:19:54.113Z,28.90
2023-09-27T11:22:30.588Z,28.91
2023-09-27T11:24:57.698Z,29.05
2023-09-27T11:27:24.439Z,29.25
2023-09-27T11:29:56.981Z,29.09
2023-09-27T11:32:24.381Z,29.06
2023-09-27T11:34:58.159Z,29.08
2023-09-27T11:37:25.647Z,29.19
2023-09-27T11:39:56.390Z,29.50
2023-09-27T11:42:27.967Z,29.50
2023-09-27T11:45:12.317Z,29.50
2023-09-27T11:47:49.398Z,29.29
2023-09-27T11:50:17.852Z,29.60
2023-09-27T11:52:45.276Z,29.11
2023-09-27T11:55:12.029Z,28.91
2023-09-27T11:57:38.647Z,29.01
2023-09-27T12:00:09.824Z,29.29
2023-09-27T12:02:43.706Z,29.22
2023-09-27T12:05:11.560Z,29.17
2023-09-27T12:07:38.370Z,29.41
2023-09-27T12:10:06.702Z,29.79
2023-09-27T12:12:34.864Z,29.66
2023-09-27T12:15:01.724Z,29.21
2023-09-27T12:17:28.782Z,29.29
2023-09-27T12:19:55.556Z,29.41
2023-09-27T12:22:22.326Z,29.35
2023-09-27T12:24:49.066Z,29.30
2023-09-27T12:27:15.729Z,29.34
2023-09-27T12:29:42.448Z,29.63
2023-09-27T12:32:09.251Z,29.39
2023-09-27T12:34:35.904Z,29.62
2023-09-27T12:37:02.579Z,29.35
2023-09-27T12:39:29.243Z,29.14
2023-09-27T12:41:59.179Z,29.44
2023-09-27T12:44:25.875Z,29.87
2023-09-27T12:46:52.572Z,29.52
2023-09-27T12:49:19.849Z,29.38
2023-09-27T12:51:49.747Z,29.29
2023-09-27T12:54:16.877Z,29.60
2023-09-27T12:56:44.039Z,29.69
2023-09-27T12:59:11.034Z,29.57
2023-09-27T13:01:40.721Z,29.49
2023-09-27T13:04:08.463Z,29.80
2023-09-27T13:06:35.633Z,29.98
2023-09-27T13:09:04.176Z,29.78
2023-09-27T13:11:31.025Z,29.96
2023-09-27T13:13:57.745Z,30.03
2023-09-27T13:16:25.004Z,30.05
2023-09-27T13:18:54.210Z,29.69
2023-09-27T13:21:21.851Z,29.54
2023-09-27T13:23:48.647Z,29.60
2023-09-27T13:26:15.489Z,29.55
2023-09-27T13:28:42.157Z,29.56
2023-09-27T13:31:08.812Z,29.52
2023-09-27T13:33:35.773Z,29.57
2023-09-27T13:36:02.816Z,29.59
2023-09-27T13:38:30.392Z,29.56
2023-09-27T13:40:57.080Z,29.36
2023-09-27T13:43:23.883Z,29.71
2023-09-27T13:45:50.532Z,29.27
2023-09-27T13:48:17.287Z,29.07
2023-09-27T13:50:44.240Z,29.11
2023-09-27T13:53:10.922Z,29.35
2023-09-27T13:55:38.246Z,29.29
2023-09-27T13:58:04.890Z,29.56
2023-09-27T14:00:31.637Z,29.73
2023-09-27T14:02:58.568Z,29.60
2023-09-27T14:05:25.745Z,29.56
2023-09-27T14:07:52.827Z,29.54
2023-09-27T14:10:20.676Z,29.61
2023-09-27T14:12:47.316Z,29.57
2023-09-27T14:15:15.757Z,29.40
2023-09-27T14:17:42.787Z,29.49
2023-09-27T14:20:11.725Z,29.39
2023-09-27T14:22:38.392Z,29.30
2023-09-27T14:25:06.857Z,29.61
2023-09-27T14:27:34.238Z,29.57
2023-09-27T14:30:00.875Z,29.67
2023-09-27T14:32:27.713Z,29.61
2023-09-27T14:34:58.063Z,29.53
2023-09-27T14:37:25.332Z,29.59
2023-09-27T14:39:52.592Z,29.42
2023-09-27T14:42:19.327Z,29.43
2023-09-27T14:44:46.285Z,29.29
2023-09-27T14:47:12.950Z,29.15
2023-09-27T14:49:39.766Z,29.14
2023-09-27T14:52:06.377Z,29.13
2023-09-27T14:54:33.013Z,29.15
2023-09-27T14:57:00.134Z,29.22
2023-09-27T14:59:26.796Z,29.14
2023-09-27T15:01:58.894Z,29.02
2023-09-27T15:04:26.304Z,29.20
2023-09-27T15:06:53.983Z,29.27
2023-09-27T15:09:21.125Z,29.19
2023-09-27T15:11:47.777Z,29.25
2023-09-27T15:14:15.154Z,29.28
2023-09-27T15:16:42.127Z,29.18
2023-09-27T15:19:09.400Z,29.15
2023-09-27T15:21:37.502Z,29.13
2023-09-27T15:24:04.486Z,29.11
2023-09-27T15:26:31.717Z,29.00
2023-09-27T15:28:58.626Z,29.00
2023-09-27T15:31:25.335Z,28.97
2023-09-27T15:33:52.334Z,28.91
2023-09-27T15:36:19.390Z,28.80
2023-09-27T15:38:46.422Z,28.77
2023-09-27T15:41:19.847Z,28.73
2023-09-27T15:43:47.027Z,28.72
2023-09-27T15:46:16.163Z,28.61
2023-09-27T15:48:44.641Z,28.54
2023-09-27T15:51:12.842Z,28.47
2023-09-27T15:53:39.738Z,28.40
2023-09-27T15:56:08.819Z,28.33
2023-09-27T15:58:35.511Z,28.33
2023-09-27T16:01:07.602Z,28.29
2023-09-27T16:03:34.484Z,28.25
2023-09-27T16:06:02.068Z,28.15
2023-09-27T16:08:28.783Z,28.09
2023-09-27T16:10:57.888Z,27.96
2023-09-27T16:13:24.768Z,27.85
2023-09-27T16:15:52.720Z,27.87
2023-09-27T16:18:19.819Z,27.83
2023-09-27T16:20:47.710Z,27.78
2023-09-27T16:23:15.456Z,27.75
2023-09-27T16:25:43.581Z,27.72
2023-09-27T16:28:10.694Z,27.72
2023-09-27T16:30:39.582Z,27.66
2023-09-27T16:33:06.347Z,27.61
2023-09-27T16:35:33.205Z,27.58
2023-09-27T16:38:00.351Z,27.52
2023-09-27T16:40:27.114Z,27.40
2023-09-27T16:42:54.095Z,27.14
2023-09-27T16:45:20.762Z,27.08
2023-09-27T16:47:47.574Z,26.93
2023-09-27T16:50:14.175Z,26.67
2023-09-27T16:52:40.993Z,26.50
2023-09-27T16:55:08.244Z,26.38
2023-09-27T16:57:34.943Z,26.24
2023-09-27T17:00:01.615Z,26.14
2023-09-27T17:02:28.724Z,26.11
2023-09-27T17:04:55.567Z,26.03
2023-09-27T17:07:22.554Z,25.97
2023-09-27T17:09:49.218Z,25.85
2023-09-27T17:12:15.845Z,25.69
2023-09-27T17:14:42.521Z,25.60
2023-09-27T17:17:09.230Z,25.57
2023-09-27T17:19:36.009Z,25.43
2023-09-27T17:22:03.136Z,25.42
2023-09-27T17:24:29.800Z,25.35
2023-09-27T17:26:56.658Z,25.22
2023-09-27T17:29:23.349Z,25.14
2023-09-27T17:31:50.141Z,25.04
2023-09-27T17:34:17.019Z,24.94
2023-09-27T17:36:43.718Z,24.87
2023-09-27T17:39:11.142Z,24.83
2023-09-27T17:41:37.903Z,24.71
2023-09-27T17:44:04.979Z,24.67
2023-09-27T17:46:31.977Z,24.60
2023-09-27T17:49:00.922Z,24.51
2023-09-27T17:51:27.949Z,24.40
2023-09-27T17:53:55.231Z,24.30
2023-09-27T17:56:22.986Z,24.28
2023-09-27T17:58:49.648Z,24.32
2023-09-27T18:01:16.382Z,24.36
2023-09-27T18:03:44.012Z,24.28
2023-09-27T18:06:12.814Z,24.28
2023-09-27T18:08:40.938Z,24.26
2023-09-27T18:11:17.106Z,24.20
2023-09-27T18:13:44.635Z,24.12
2023-09-27T18:16:19.779Z,24.05
2023-09-27T18:18:50.432Z,24.06
2023-09-27T18:21:19.187Z,23.94
2023-09-27T18:23:46.160Z,23.93
2023-09-27T18:26:14.967Z,23.97
2023-09-27T18:28:42.346Z,23.94
2023-09-27T18:31:09.371Z,23.91
2023-09-27T18:33:36.120Z,23.77
2023-09-27T18:36:03.820Z,23.80
2023-09-27T18:38:30.703Z,23.76
2023-09-27T18:40:57.745Z,23.75
2023-09-27T18:43:24.878Z,23.73
2023-09-27T18:45:52.066Z,23.69
2023-09-27T18:48:21.697Z,23.58
2023-09-27T18:50:52.263Z,23.61
2023-09-27T18:53:19.059Z,23.48
2023-09-27T18:55:45.788Z,23.43
2023-09-27T18:58:15.734Z,23.37
2023-09-27T19:00:45.838Z,23.27
2023-09-27T19:03:15.274Z,23.20
2023-09-27T19:05:42.634Z,23.02
2023-09-27T19:08:10.005Z,22.91
2023-09-27T19:10:39.922Z,22.94
2023-09-27T19:13:06.722Z,22.92
2023-09-27T19:15:33.683Z,22.89
2023-09-27T19:18:00.475Z,22.89
2023-09-27T19:20:27.493Z,22.87
2023-09-27T19:22:54.709Z,22.77
2023-09-27T19:25:21.830Z,22.73
2023-09-27T19:27:49.458Z,22.71
2023-09-27T19:30:17.245Z,22.56
2023-09-27T19:32:45.483Z,22.59
2023-09-27T19:35:16.047Z,22.49
2023-09-27T19:37:43.718Z,22.47
2023-09-27T19:40:11.262Z,22.51
2023-09-27T19:42:39.233Z,22.53
2023-09-27T19:45:06.707Z,22.48
2023-09-27T19:47:36.168Z,22.47
2023-09-27T19:50:04.452Z,22.57
2023-09-27T19:52:34.389Z,22.66
2023-09-27T19:55:01.307Z,22.66
2023-09-27T19:57:28.108Z,22.65
2023-09-27T19:59:54.886Z,22.61
2023-09-27T20:02:21.686Z,22.58
2023-09-27T20:04:49.004Z,22.47
2023-09-27T20:07:15.677Z,22.30
2023-09-27T20:09:43.069Z,22.25
2023-09-27T20:12:10.205Z,22.23
2023-09-27T20:14:36.908Z,22.21
2023-09-27T20:17:03.963Z,22.09
2023-09-27T20:19:30.913Z,22.05
2023-09-27T20:21:57.718Z,22.01
2023-09-27T20:24:27.713Z,22.01
2023-09-27T20:26:54.498Z,22.01
2023-09-27T20:29:21.536Z,21.92
2023-09-27T20:31:48.428Z,21.83
2023-09-27T20:34:15.245Z,21.58
2023-09-27T20:36:42.514Z,21.48
2023-09-27T20:39:12.326Z,21.17
2023-09-27T20:41:39.163Z,21.06
2023-09-27T20:44:06.995Z,20.95
2023-09-27T20:46:33.810Z,20.73
2023-09-27T20:49:01.997Z,20.97
2023-09-27T20:51:28.865Z,21.04
2023-09-27T20:53:56.372Z,21.07
2023-09-27T20:56:23.674Z,20.94
2023-09-27T20:58:50.630Z,20.99
2023-09-27T21:01:30.698Z,20.84
2023-09-27T21:04:00.368Z,20.68
2023-09-27T21:06:30.983Z,20.47
2023-09-27T21:09:02.889Z,20.39
2023-09-27T21:11:38.936Z,20.27
2023-09-27T21:14:11.937Z,20.17
2023-09-27T21:16:38.864Z,20.16
2023-09-27T21:19:06.925Z,20.16
2023-09-27T21:21:33.959Z,20.23
2023-09-27T21:24:00.926Z,20.30
2023-09-27T21:26:28.058Z,20.44
2023-09-27T21:28:54.936Z,20.53
2023-09-27T21:31:21.707Z,20.54
2023-09-27T21:33:48.686Z,20.58
2023-09-27T21:36:15.746Z,20.54
2023-09-27T21:38:42.571Z,20.49
2023-09-27T21:41:09.610Z,20.42
2023-09-27T21:43:38.687Z,20.42
2023-09-27T21:46:16.180Z,20.40
2023-09-27T21:48:42.923Z,20.47
2023-09-27T21:51:09.603Z,20.49
2023-09-27T21:53:36.365Z,20.46
2023-09-27T21:56:03.123Z,20.45
2023-09-27T21:58:30.015Z,20.38
2023-09-27T22:00:56.865Z,20.28
2023-09-27T22:03:24.216Z,20.25
2023-09-27T22:05:50.937Z,20.16
2023-09-27T22:08:18.260Z,20.12
2023-09-27T22:10:45.690Z,20.07
2023-09-27T22:13:29.358Z,20.09
2023-09-27T22:16:24.466Z,20.14
2023-09-27T22:18:51.144Z,20.18
2023-09-27T22:21:30.553Z,20.20
2023-09-27T22:23:59.205Z,20.27
2023-09-27T22:26:26.503Z,20.30
2023-09-27T22:28:57.208Z,20.08
2023-09-27T22:31:36.741Z,20.24
2023-09-27T22:34:13.138Z,20.15
2023-09-27T22:36:47.731Z,20.15
2023-09-27T22:39:17.893Z,20.17
2023-09-27T22:41:46.743Z,20.21
2023-09-27T22:44:23.959Z,20.25
2023-09-27T22:46:52.740Z,20.34
2023-09-27T22:49:21.349Z,20.41
2023-09-27T22:51:48.833Z,20.39
2023-09-27T22:54:17.772Z,20.41
2023-09-27T22:56:45.637Z,20.40
2023-09-27T22:59:13.659Z,20.44
2023-09-27T23:01:41.716Z,20.46
2023-09-27T23:04:15.276Z,20.31
2023-09-27T23:06:46.485Z,20.36
2023-09-27T23:09:21.396Z,20.32
2023-09-27T23:11:50.310Z,20.32
2023-09-27T23:14:23.349Z,20.28
2023-09-27T23:16:51.223Z,20.46
2023-09-27T23:19:18.813Z,20.64
2023-09-27T23:21:49.535Z,20.72
2023-09-27T23:24:16.571Z,20.73
2023-09-27T23:26:52.719Z,20.76
2023-09-27T23:29:44.538Z,20.70
2023-09-27T23:32:31.501Z,20.68
2023-09-27T23:37:48.397Z,20.59
2023-09-27T23:40:15.803Z,20.71
2023-09-27T23:42:44.617Z,20.77
2023-09-27T23:45:12.604Z,20.82
2023-09-27T23:47:44.979Z,20.81
2023-09-27T23:50:16.127Z,20.85
2023-09-27T23:52:47.287Z,20.79
2023-09-27T23:55:16.270Z,20.73
2023-09-27T23:57:47.762Z,20.70
